sensor_id;sensor_type;location;lat;lon;timestamp;P1;durP1;ratioP1;P2;durP2;ratioP2
11121;SDS011;5615;49.304;10.576;2023-04-24T00:00:10;3.03;;;2.00;;
11121;SDS011;5615;49.304;10.576;2023-04-24T00:02:38;2.83;;;2.50;;
11121;SDS011;5615;49.304;10.576;2023-04-24T00:05:04;3.27;;;2.00;;
11121;SDS011;5615;49.304;10.576;2023-04-24T00:07:33;2.30;;;2.03;;
11121;SDS011;5615;49.304;10.576;2023-04-24T00:10:00;2.40;;;1.97;;
11121;SDS011;5615;49.304;10.576;2023-04-24T00:12:27;4.30;;;2.20;;
11121;SDS011;5615;49.304;10.576;2023-04-24T00:14:54;2.77;;;1.80;;
11121;SDS011;5615;49.304;10.576;2023-04-24T00:17:20;3.03;;;2.00;;
11121;SDS011;5615;49.304;10.576;2023-04-24T00:19:47;5.10;;;2.27;;
11121;SDS011;5615;49.304;10.576;2023-04-24T00:22:16;3.00;;;2.00;;
11121;SDS011;5615;49.304;10.576;2023-04-24T00:24:44;2.73;;;1.93;;
11121;SDS011;5615;49.304;10.576;2023-04-24T00:27:11;2.10;;;1.63;;
11121;SDS011;5615;49.304;10.576;2023-04-24T00:29:37;2.30;;;2.00;;
11121;SDS011;5615;49.304;10.576;2023-04-24T00:32:04;2.33;;;2.10;;
11121;SDS011;5615;49.304;10.576;2023-04-24T00:34:31;1.87;;;1.63;;
11121;SDS011;5615;49.304;10.576;2023-04-24T00:36:57;2.03;;;1.80;;
11121;SDS011;5615;49.304;10.576;2023-04-24T00:39:24;2.27;;;1.57;;
11121;SDS011;5615;49.304;10.576;2023-04-24T00:41:52;1.97;;;1.80;;
11121;SDS011;5615;49.304;10.576;2023-04-24T00:44:20;2.20;;;1.80;;
11121;SDS011;5615;49.304;10.576;2023-04-24T00:46:47;2.13;;;1.70;;
11121;SDS011;5615;49.304;10.576;2023-04-24T00:49:16;2.80;;;1.67;;
11121;SDS011;5615;49.304;10.576;2023-04-24T00:51:44;2.20;;;1.90;;
11121;SDS011;5615;49.304;10.576;2023-04-24T00:54:10;3.60;;;1.60;;
11121;SDS011;5615;49.304;10.576;2023-04-24T00:56:38;1.70;;;1.60;;
11121;SDS011;5615;49.304;10.576;2023-04-24T00:59:07;2.37;;;1.53;;
11121;SDS011;5615;49.304;10.576;2023-04-24T01:01:34;1.67;;;1.57;;
11121;SDS011;5615;49.304;10.576;2023-04-24T01:04:01;3.10;;;1.70;;
11121;SDS011;5615;49.304;10.576;2023-04-24T01:06:28;2.70;;;1.50;;
11121;SDS011;5615;49.304;10.576;2023-04-24T01:08:56;3.40;;;1.73;;
11121;SDS011;5615;49.304;10.576;2023-04-24T01:11:24;1.90;;;1.40;;
11121;SDS011;5615;49.304;10.576;2023-04-24T01:13:51;4.30;;;1.53;;
11121;SDS011;5615;49.304;10.576;2023-04-24T01:16:19;1.63;;;1.53;;
11121;SDS011;5615;49.304;10.576;2023-04-24T01:18:46;3.43;;;1.50;;
11121;SDS011;5615;49.304;10.576;2023-04-24T01:21:13;2.60;;;1.43;;
11121;SDS011;5615;49.304;10.576;2023-04-24T01:23:43;2.53;;;1.67;;
11121;SDS011;5615;49.304;10.576;2023-04-24T01:26:10;2.50;;;1.40;;
11121;SDS011;5615;49.304;10.576;2023-04-24T01:28:38;2.53;;;1.63;;
11121;SDS011;5615;49.304;10.576;2023-04-24T01:31:04;1.97;;;1.60;;
11121;SDS011;5615;49.304;10.576;2023-04-24T01:33:32;1.87;;;1.50;;
11121;SDS011;5615;49.304;10.576;2023-04-24T01:35:59;2.53;;;1.50;;
11121;SDS011;5615;49.304;10.576;2023-04-24T01:38:26;1.70;;;1.40;;
11121;SDS011;5615;49.304;10.576;2023-04-24T01:40:54;3.67;;;1.57;;
11121;SDS011;5615;49.304;10.576;2023-04-24T01:43:20;3.17;;;1.50;;
11121;SDS011;5615;49.304;10.576;2023-04-24T01:45:47;3.10;;;1.70;;
11121;SDS011;5615;49.304;10.576;2023-04-24T01:48:14;2.80;;;1.63;;
11121;SDS011;5615;49.304;10.576;2023-04-24T01:50:41;2.97;;;2.43;;
11121;SDS011;5615;49.304;10.576;2023-04-24T01:53:08;3.10;;;2.00;;
11121;SDS011;5615;49.304;10.576;2023-04-24T01:55:34;3.70;;;2.50;;
11121;SDS011;5615;49.304;10.576;2023-04-24T01:58:02;2.70;;;1.50;;
11121;SDS011;5615;49.304;10.576;2023-04-24T02:00:29;3.23;;;1.80;;
11121;SDS011;5615;49.304;10.576;2023-04-24T02:02:56;3.13;;;1.60;;
11121;SDS011;5615;49.304;10.576;2023-04-24T02:05:22;2.50;;;1.97;;
11121;SDS011;5615;49.304;10.576;2023-04-24T02:07:49;3.47;;;1.70;;
11121;SDS011;5615;49.304;10.576;2023-04-24T02:10:16;2.57;;;1.70;;
11121;SDS011;5615;49.304;10.576;2023-04-24T02:12:42;1.70;;;1.60;;
11121;SDS011;5615;49.304;10.576;2023-04-24T02:15:11;1.80;;;1.60;;
11121;SDS011;5615;49.304;10.576;2023-04-24T02:17:37;2.70;;;1.60;;
11121;SDS011;5615;49.304;10.576;2023-04-24T02:20:05;2.43;;;1.70;;
11121;SDS011;5615;49.304;10.576;2023-04-24T02:22:32;3.83;;;1.60;;
11121;SDS011;5615;49.304;10.576;2023-04-24T02:24:59;1.60;;;1.50;;
11121;SDS011;5615;49.304;10.576;2023-04-24T02:27:26;2.00;;;1.80;;
11121;SDS011;5615;49.304;10.576;2023-04-24T02:29:53;3.60;;;1.90;;
11121;SDS011;5615;49.304;10.576;2023-04-24T02:32:21;2.13;;;1.60;;
11121;SDS011;5615;49.304;10.576;2023-04-24T02:34:48;1.90;;;1.70;;
11121;SDS011;5615;49.304;10.576;2023-04-24T02:37:15;3.03;;;1.70;;
11121;SDS011;5615;49.304;10.576;2023-04-24T02:39:41;2.13;;;1.80;;
11121;SDS011;5615;49.304;10.576;2023-04-24T02:42:08;2.50;;;1.70;;
11121;SDS011;5615;49.304;10.576;2023-04-24T02:44:35;2.47;;;1.70;;
11121;SDS011;5615;49.304;10.576;2023-04-24T02:47:02;2.60;;;1.70;;
11121;SDS011;5615;49.304;10.576;2023-04-24T02:49:30;2.27;;;1.70;;
11121;SDS011;5615;49.304;10.576;2023-04-24T02:51:57;2.27;;;1.60;;
11121;SDS011;5615;49.304;10.576;2023-04-24T02:54:23;1.87;;;1.63;;
11121;SDS011;5615;49.304;10.576;2023-04-24T02:56:50;3.47;;;1.50;;
11121;SDS011;5615;49.304;10.576;2023-04-24T02:59:17;2.27;;;1.80;;
11121;SDS011;5615;49.304;10.576;2023-04-24T03:01:43;3.40;;;1.60;;
11121;SDS011;5615;49.304;10.576;2023-04-24T03:04:10;2.80;;;1.57;;
11121;SDS011;5615;49.304;10.576;2023-04-24T03:06:38;2.43;;;2.00;;
11121;SDS011;5615;49.304;10.576;2023-04-24T03:09:04;4.00;;;2.37;;
11121;SDS011;5615;49.304;10.576;2023-04-24T03:11:31;3.07;;;1.83;;
11121;SDS011;5615;49.304;10.576;2023-04-24T03:13:57;15.37;;;8.67;;
11121;SDS011;5615;49.304;10.576;2023-04-24T03:16:24;3.07;;;2.70;;
11121;SDS011;5615;49.304;10.576;2023-04-24T03:18:51;4.33;;;2.10;;
11121;SDS011;5615;49.304;10.576;2023-04-24T03:21:17;3.93;;;2.87;;
11121;SDS011;5615;49.304;10.576;2023-04-24T03:23:45;3.30;;;2.23;;
11121;SDS011;5615;49.304;10.576;2023-04-24T03:26:12;2.13;;;1.90;;
11121;SDS011;5615;49.304;10.576;2023-04-24T03:28:38;4.43;;;2.43;;
11121;SDS011;5615;49.304;10.576;2023-04-24T03:31:05;3.60;;;2.30;;
11121;SDS011;5615;49.304;10.576;2023-04-24T03:33:32;4.73;;;3.13;;
11121;SDS011;5615;49.304;10.576;2023-04-24T03:35:59;4.33;;;3.00;;
11121;SDS011;5615;49.304;10.576;2023-04-24T03:38:25;3.30;;;2.40;;
11121;SDS011;5615;49.304;10.576;2023-04-24T03:40:53;3.93;;;2.67;;
11121;SDS011;5615;49.304;10.576;2023-04-24T03:43:20;4.27;;;2.60;;
11121;SDS011;5615;49.304;10.576;2023-04-24T03:45:46;7.37;;;2.63;;
11121;SDS011;5615;49.304;10.576;2023-04-24T03:48:13;4.03;;;2.17;;
11121;SDS011;5615;49.304;10.576;2023-04-24T03:50:40;2.30;;;2.10;;
11121;SDS011;5615;49.304;10.576;2023-04-24T03:53:06;6.27;;;4.67;;
11121;SDS011;5615;49.304;10.576;2023-04-24T03:55:33;3.73;;;2.50;;
11121;SDS011;5615;49.304;10.576;2023-04-24T03:58:01;4.00;;;2.40;;
11121;SDS011;5615;49.304;10.576;2023-04-24T04:00:28;4.03;;;2.20;;
11121;SDS011;5615;49.304;10.576;2023-04-24T04:02:58;2.63;;;2.30;;
11121;SDS011;5615;49.304;10.576;2023-04-24T04:05:24;3.17;;;2.77;;
11121;SDS011;5615;49.304;10.576;2023-04-24T04:07:51;3.87;;;3.47;;
11121;SDS011;5615;49.304;10.576;2023-04-24T04:10:18;4.63;;;2.60;;
11121;SDS011;5615;49.304;10.576;2023-04-24T04:12:44;3.50;;;2.57;;
11121;SDS011;5615;49.304;10.576;2023-04-24T04:15:12;3.93;;;2.40;;
11121;SDS011;5615;49.304;10.576;2023-04-24T04:17:39;6.13;;;3.40;;
11121;SDS011;5615;49.304;10.576;2023-04-24T04:20:06;5.80;;;2.90;;
11121;SDS011;5615;49.304;10.576;2023-04-24T04:22:35;5.43;;;3.33;;
11121;SDS011;5615;49.304;10.576;2023-04-24T04:25:01;2.90;;;2.07;;
11121;SDS011;5615;49.304;10.576;2023-04-24T04:27:28;3.63;;;2.50;;
11121;SDS011;5615;49.304;10.576;2023-04-24T04:29:57;5.70;;;2.07;;
11121;SDS011;5615;49.304;10.576;2023-04-24T04:32:25;3.93;;;2.43;;
11121;SDS011;5615;49.304;10.576;2023-04-24T04:34:52;4.30;;;2.40;;
11121;SDS011;5615;49.304;10.576;2023-04-24T04:37:19;5.97;;;2.97;;
11121;SDS011;5615;49.304;10.576;2023-04-24T04:39:46;2.63;;;2.30;;
11121;SDS011;5615;49.304;10.576;2023-04-24T04:42:13;2.97;;;2.47;;
11121;SDS011;5615;49.304;10.576;2023-04-24T04:44:40;2.87;;;2.57;;
11121;SDS011;5615;49.304;10.576;2023-04-24T04:47:07;4.37;;;2.73;;
11121;SDS011;5615;49.304;10.576;2023-04-24T04:49:37;4.10;;;2.70;;
11121;SDS011;5615;49.304;10.576;2023-04-24T04:52:03;4.30;;;2.40;;
11121;SDS011;5615;49.304;10.576;2023-04-24T04:54:30;4.07;;;3.67;;
11121;SDS011;5615;49.304;10.576;2023-04-24T04:56:56;2.70;;;2.50;;
11121;SDS011;5615;49.304;10.576;2023-04-24T04:59:23;3.67;;;2.50;;
11121;SDS011;5615;49.304;10.576;2023-04-24T05:01:50;2.73;;;2.30;;
11121;SDS011;5615;49.304;10.576;2023-04-24T05:04:17;2.83;;;2.13;;
11121;SDS011;5615;49.304;10.576;2023-04-24T05:06:44;3.90;;;2.50;;
11121;SDS011;5615;49.304;10.576;2023-04-24T05:09:12;5.67;;;2.93;;
11121;SDS011;5615;49.304;10.576;2023-04-24T05:11:38;5.20;;;2.20;;
11121;SDS011;5615;49.304;10.576;2023-04-24T05:14:05;3.17;;;2.60;;
11121;SDS011;5615;49.304;10.576;2023-04-24T05:16:32;3.13;;;2.27;;
11121;SDS011;5615;49.304;10.576;2023-04-24T05:18:58;3.73;;;2.60;;
11121;SDS011;5615;49.304;10.576;2023-04-24T05:21:25;4.20;;;2.90;;
11121;SDS011;5615;49.304;10.576;2023-04-24T05:23:53;6.40;;;4.37;;
11121;SDS011;5615;49.304;10.576;2023-04-24T05:26:19;5.47;;;4.93;;
11121;SDS011;5615;49.304;10.576;2023-04-24T05:28:47;4.13;;;2.70;;
11121;SDS011;5615;49.304;10.576;2023-04-24T05:31:14;9.87;;;5.70;;
11121;SDS011;5615;49.304;10.576;2023-04-24T05:33:42;5.23;;;3.93;;
11121;SDS011;5615;49.304;10.576;2023-04-24T05:36:09;2.30;;;2.10;;
11121;SDS011;5615;49.304;10.576;2023-04-24T05:38:35;2.40;;;2.10;;
11121;SDS011;5615;49.304;10.576;2023-04-24T05:41:04;6.00;;;5.40;;
11121;SDS011;5615;49.304;10.576;2023-04-24T05:43:30;2.63;;;2.30;;
11121;SDS011;5615;49.304;10.576;2023-04-24T05:45:57;3.30;;;3.00;;
11121;SDS011;5615;49.304;10.576;2023-04-24T05:48:24;3.30;;;2.00;;
11121;SDS011;5615;49.304;10.576;2023-04-24T05:50:51;2.70;;;1.97;;
11121;SDS011;5615;49.304;10.576;2023-04-24T05:53:18;2.43;;;1.63;;
11121;SDS011;5615;49.304;10.576;2023-04-24T05:55:45;3.03;;;1.53;;
11121;SDS011;5615;49.304;10.576;2023-04-24T05:58:13;3.40;;;1.60;;
11121;SDS011;5615;49.304;10.576;2023-04-24T06:00:40;3.40;;;1.67;;
11121;SDS011;5615;49.304;10.576;2023-04-24T06:03:09;4.00;;;1.80;;
11121;SDS011;5615;49.304;10.576;2023-04-24T06:05:36;1.80;;;1.60;;
11121;SDS011;5615;49.304;10.576;2023-04-24T06:08:02;2.57;;;1.40;;
11121;SDS011;5615;49.304;10.576;2023-04-24T06:10:29;1.70;;;1.60;;
11121;SDS011;5615;49.304;10.576;2023-04-24T06:12:56;1.63;;;1.20;;
11121;SDS011;5615;49.304;10.576;2023-04-24T06:15:27;2.03;;;1.30;;
11121;SDS011;5615;49.304;10.576;2023-04-24T06:17:55;2.20;;;1.60;;
11121;SDS011;5615;49.304;10.576;2023-04-24T06:20:22;1.03;;;1.00;;
11121;SDS011;5615;49.304;10.576;2023-04-24T06:22:48;1.17;;;1.07;;
11121;SDS011;5615;49.304;10.576;2023-04-24T06:25:15;1.00;;;0.90;;
11121;SDS011;5615;49.304;10.576;2023-04-24T06:27:42;0.97;;;0.90;;
11121;SDS011;5615;49.304;10.576;2023-04-24T06:30:09;3.50;;;1.13;;
11121;SDS011;5615;49.304;10.576;2023-04-24T06:32:37;1.17;;;1.07;;
11121;SDS011;5615;49.304;10.576;2023-04-24T06:35:04;1.57;;;1.17;;
11121;SDS011;5615;49.304;10.576;2023-04-24T06:37:32;3.77;;;1.20;;
11121;SDS011;5615;49.304;10.576;2023-04-24T06:39:59;3.43;;;1.67;;
11121;SDS011;5615;49.304;10.576;2023-04-24T06:42:26;2.20;;;2.00;;
11121;SDS011;5615;49.304;10.576;2023-04-24T06:44:52;2.90;;;1.80;;
11121;SDS011;5615;49.304;10.576;2023-04-24T06:47:19;2.80;;;1.90;;
11121;SDS011;5615;49.304;10.576;2023-04-24T06:49:47;2.60;;;2.20;;
11121;SDS011;5615;49.304;10.576;2023-04-24T06:52:15;2.23;;;1.90;;
11121;SDS011;5615;49.304;10.576;2023-04-24T06:54:42;2.30;;;2.10;;
11121;SDS011;5615;49.304;10.576;2023-04-24T06:57:09;2.67;;;2.40;;
11121;SDS011;5615;49.304;10.576;2023-04-24T06:59:36;2.47;;;2.13;;
11121;SDS011;5615;49.304;10.576;2023-04-24T07:02:03;3.73;;;2.30;;
11121;SDS011;5615;49.304;10.576;2023-04-24T07:04:30;5.90;;;2.90;;
11121;SDS011;5615;49.304;10.576;2023-04-24T07:06:58;2.93;;;2.60;;
11121;SDS011;5615;49.304;10.576;2023-04-24T07:09:25;3.10;;;2.40;;
11121;SDS011;5615;49.304;10.576;2023-04-24T07:11:52;3.10;;;2.70;;
11121;SDS011;5615;49.304;10.576;2023-04-24T07:14:21;3.37;;;3.07;;
11121;SDS011;5615;49.304;10.576;2023-04-24T07:16:48;3.20;;;2.90;;
11121;SDS011;5615;49.304;10.576;2023-04-24T07:19:15;5.13;;;3.10;;
11121;SDS011;5615;49.304;10.576;2023-04-24T07:21:41;5.07;;;3.30;;
11121;SDS011;5615;49.304;10.576;2023-04-24T07:24:09;4.43;;;3.60;;
11121;SDS011;5615;49.304;10.576;2023-04-24T07:26:38;4.93;;;3.90;;
11121;SDS011;5615;49.304;10.576;2023-04-24T07:29:05;4.53;;;3.63;;
11121;SDS011;5615;49.304;10.576;2023-04-24T07:31:31;4.17;;;3.77;;
11121;SDS011;5615;49.304;10.576;2023-04-24T07:33:58;4.73;;;3.73;;
11121;SDS011;5615;49.304;10.576;2023-04-24T07:36:25;5.87;;;3.60;;
11121;SDS011;5615;49.304;10.576;2023-04-24T07:38:53;8.90;;;3.63;;
11121;SDS011;5615;49.304;10.576;2023-04-24T07:41:22;4.10;;;3.80;;
11121;SDS011;5615;49.304;10.576;2023-04-24T07:43:49;4.57;;;3.80;;
11121;SDS011;5615;49.304;10.576;2023-04-24T07:46:17;4.33;;;3.87;;
11121;SDS011;5615;49.304;10.576;2023-04-24T07:48:44;3.70;;;3.40;;
11121;SDS011;5615;49.304;10.576;2023-04-24T07:51:12;5.27;;;4.07;;
11121;SDS011;5615;49.304;10.576;2023-04-24T07:53:39;7.67;;;4.00;;
11121;SDS011;5615;49.304;10.576;2023-04-24T07:56:06;4.10;;;3.70;;
11121;SDS011;5615;49.304;10.576;2023-04-24T07:58:34;4.40;;;3.60;;
11121;SDS011;5615;49.304;10.576;2023-04-24T08:01:01;5.27;;;3.93;;
11121;SDS011;5615;49.304;10.576;2023-04-24T08:03:27;5.67;;;3.60;;
11121;SDS011;5615;49.304;10.576;2023-04-24T08:05:54;5.77;;;4.20;;
11121;SDS011;5615;49.304;10.576;2023-04-24T08:08:21;5.50;;;4.07;;
11121;SDS011;5615;49.304;10.576;2023-04-24T08:10:48;6.03;;;4.00;;
11121;SDS011;5615;49.304;10.576;2023-04-24T08:13:15;4.67;;;4.17;;
11121;SDS011;5615;49.304;10.576;2023-04-24T08:15:43;4.43;;;4.03;;
11121;SDS011;5615;49.304;10.576;2023-04-24T08:18:10;4.80;;;3.77;;
11121;SDS011;5615;49.304;10.576;2023-04-24T08:20:38;6.93;;;3.70;;
11121;SDS011;5615;49.304;10.576;2023-04-24T08:23:05;4.50;;;3.43;;
11121;SDS011;5615;49.304;10.576;2023-04-24T08:25:31;3.93;;;3.53;;
11121;SDS011;5615;49.304;10.576;2023-04-24T08:28:00;4.10;;;3.70;;
11121;SDS011;5615;49.304;10.576;2023-04-24T08:30:27;4.03;;;3.30;;
11121;SDS011;5615;49.304;10.576;2023-04-24T08:32:56;3.60;;;3.30;;
11121;SDS011;5615;49.304;10.576;2023-04-24T08:35:22;4.77;;;2.90;;
11121;SDS011;5615;49.304;10.576;2023-04-24T08:37:49;4.00;;;3.20;;
11121;SDS011;5615;49.304;10.576;2023-04-24T08:40:16;3.60;;;3.17;;
11121;SDS011;5615;49.304;10.576;2023-04-24T08:42:43;4.03;;;3.50;;
11121;SDS011;5615;49.304;10.576;2023-04-24T08:45:11;5.03;;;3.43;;
11121;SDS011;5615;49.304;10.576;2023-04-24T08:47:38;4.27;;;3.07;;
11121;SDS011;5615;49.304;10.576;2023-04-24T08:50:08;3.60;;;3.00;;
11121;SDS011;5615;49.304;10.576;2023-04-24T08:52:35;3.77;;;2.90;;
11121;SDS011;5615;49.304;10.576;2023-04-24T08:55:02;3.07;;;2.80;;
11121;SDS011;5615;49.304;10.576;2023-04-24T08:57:30;3.43;;;2.87;;
11121;SDS011;5615;49.304;10.576;2023-04-24T08:59:58;4.83;;;3.10;;
11121;SDS011;5615;49.304;10.576;2023-04-24T09:02:25;4.43;;;2.90;;
11121;SDS011;5615;49.304;10.576;2023-04-24T09:04:52;6.90;;;2.93;;
11121;SDS011;5615;49.304;10.576;2023-04-24T09:07:20;3.47;;;2.70;;
11121;SDS011;5615;49.304;10.576;2023-04-24T09:09:50;4.90;;;2.43;;
11121;SDS011;5615;49.304;10.576;2023-04-24T09:12:17;5.17;;;2.70;;
11121;SDS011;5615;49.304;10.576;2023-04-24T09:14:45;3.00;;;2.70;;
11121;SDS011;5615;49.304;10.576;2023-04-24T09:17:11;5.23;;;2.20;;
11121;SDS011;5615;49.304;10.576;2023-04-24T09:19:38;2.93;;;2.20;;
11121;SDS011;5615;49.304;10.576;2023-04-24T09:22:05;3.57;;;2.40;;
11121;SDS011;5615;49.304;10.576;2023-04-24T09:24:34;2.57;;;2.37;;
11121;SDS011;5615;49.304;10.576;2023-04-24T09:27:01;2.87;;;2.20;;
11121;SDS011;5615;49.304;10.576;2023-04-24T09:29:28;2.83;;;2.20;;
11121;SDS011;5615;49.304;10.576;2023-04-24T09:31:56;3.37;;;2.37;;
11121;SDS011;5615;49.304;10.576;2023-04-24T09:34:23;3.70;;;2.17;;
11121;SDS011;5615;49.304;10.576;2023-04-24T09:36:51;3.80;;;2.10;;
11121;SDS011;5615;49.304;10.576;2023-04-24T09:39:19;2.43;;;1.90;;
11121;SDS011;5615;49.304;10.576;2023-04-24T09:41:48;5.00;;;1.97;;
11121;SDS011;5615;49.304;10.576;2023-04-24T09:44:16;2.00;;;1.90;;
11121;SDS011;5615;49.304;10.576;2023-04-24T09:46:45;2.90;;;2.20;;
11121;SDS011;5615;49.304;10.576;2023-04-24T09:49:16;2.83;;;1.97;;
11121;SDS011;5615;49.304;10.576;2023-04-24T09:51:48;4.00;;;2.30;;
11121;SDS011;5615;49.304;10.576;2023-04-24T09:54:15;2.10;;;1.90;;
11121;SDS011;5615;49.304;10.576;2023-04-24T09:56:43;2.23;;;2.00;;
11121;SDS011;5615;49.304;10.576;2023-04-24T09:59:12;3.50;;;1.80;;
11121;SDS011;5615;49.304;10.576;2023-04-24T10:01:39;2.50;;;2.00;;
11121;SDS011;5615;49.304;10.576;2023-04-24T10:04:14;2.30;;;2.10;;
11121;SDS011;5615;49.304;10.576;2023-04-24T10:06:42;2.73;;;1.80;;
11121;SDS011;5615;49.304;10.576;2023-04-24T10:09:09;1.90;;;1.70;;
11121;SDS011;5615;49.304;10.576;2023-04-24T10:11:37;4.27;;;1.83;;
11121;SDS011;5615;49.304;10.576;2023-04-24T10:14:08;1.70;;;1.60;;
11121;SDS011;5615;49.304;10.576;2023-04-24T10:16:38;4.90;;;1.60;;
11121;SDS011;5615;49.304;10.576;2023-04-24T10:19:06;1.90;;;1.60;;
11121;SDS011;5615;49.304;10.576;2023-04-24T10:21:33;3.97;;;1.70;;
11121;SDS011;5615;49.304;10.576;2023-04-24T10:24:00;3.63;;;2.07;;
11121;SDS011;5615;49.304;10.576;2023-04-24T10:26:28;3.20;;;1.90;;
11121;SDS011;5615;49.304;10.576;2023-04-24T10:28:56;7.03;;;2.00;;
11121;SDS011;5615;49.304;10.576;2023-04-24T10:31:24;4.00;;;2.37;;
11121;SDS011;5615;49.304;10.576;2023-04-24T10:33:53;3.13;;;2.50;;
11121;SDS011;5615;49.304;10.576;2023-04-24T10:36:21;2.73;;;2.30;;
11121;SDS011;5615;49.304;10.576;2023-04-24T10:38:51;2.80;;;1.50;;
11121;SDS011;5615;49.304;10.576;2023-04-24T10:41:21;1.87;;;1.60;;
11121;SDS011;5615;49.304;10.576;2023-04-24T10:44:03;1.53;;;1.40;;
11121;SDS011;5615;49.304;10.576;2023-04-24T10:46:31;3.87;;;1.67;;
11121;SDS011;5615;49.304;10.576;2023-04-24T10:48:59;1.60;;;1.50;;
11121;SDS011;5615;49.304;10.576;2023-04-24T10:51:43;1.57;;;1.47;;
11121;SDS011;5615;49.304;10.576;2023-04-24T10:54:24;2.90;;;1.60;;
11121;SDS011;5615;49.304;10.576;2023-04-24T10:56:52;1.57;;;1.30;;
11121;SDS011;5615;49.304;10.576;2023-04-24T10:59:26;1.40;;;1.30;;
11121;SDS011;5615;49.304;10.576;2023-04-24T11:01:54;1.80;;;1.40;;
11121;SDS011;5615;49.304;10.576;2023-04-24T11:04:32;2.03;;;1.83;;
11121;SDS011;5615;49.304;10.576;2023-04-24T11:07:00;2.92;;;2.20;;
11121;SDS011;5615;49.304;10.576;2023-04-24T11:09:28;2.30;;;2.10;;
11121;SDS011;5615;49.304;10.576;2023-04-24T11:12:03;4.05;;;2.80;;
11121;SDS011;5615;49.304;10.576;2023-04-24T11:17:28;2.63;;;2.40;;
11121;SDS011;5615;49.304;10.576;2023-04-24T11:20:01;3.30;;;2.43;;
11121;SDS011;5615;49.304;10.576;2023-04-24T11:22:30;3.13;;;2.40;;
11121;SDS011;5615;49.304;10.576;2023-04-24T11:25:00;4.63;;;2.30;;
11121;SDS011;5615;49.304;10.576;2023-04-24T11:27:29;3.20;;;2.30;;
11121;SDS011;5615;49.304;10.576;2023-04-24T11:30:00;2.20;;;1.97;;
11121;SDS011;5615;49.304;10.576;2023-04-24T11:32:28;2.27;;;2.07;;
11121;SDS011;5615;49.304;10.576;2023-04-24T11:34:56;2.13;;;1.83;;
11121;SDS011;5615;49.304;10.576;2023-04-24T11:37:26;3.17;;;2.47;;
11121;SDS011;5615;49.304;10.576;2023-04-24T11:39:54;3.60;;;2.05;;
11121;SDS011;5615;49.304;10.576;2023-04-24T11:42:22;2.20;;;2.00;;
11121;SDS011;5615;49.304;10.576;2023-04-24T11:44:51;2.90;;;2.40;;
11121;SDS011;5615;49.304;10.576;2023-04-24T11:47:18;2.83;;;2.23;;
11121;SDS011;5615;49.304;10.576;2023-04-24T11:49:45;2.97;;;2.30;;
11121;SDS011;5615;49.304;10.576;2023-04-24T11:52:14;2.83;;;2.10;;
11121;SDS011;5615;49.304;10.576;2023-04-24T11:54:47;3.13;;;2.20;;
11121;SDS011;5615;49.304;10.576;2023-04-24T11:57:15;2.83;;;2.20;;
11121;SDS011;5615;49.304;10.576;2023-04-24T11:59:42;3.83;;;2.07;;
11121;SDS011;5615;49.304;10.576;2023-04-24T12:02:08;2.37;;;2.17;;
11121;SDS011;5615;49.304;10.576;2023-04-24T12:04:45;3.80;;;2.40;;
11121;SDS011;5615;49.304;10.576;2023-04-24T12:07:12;2.50;;;2.30;;
11121;SDS011;5615;49.304;10.576;2023-04-24T12:09:41;2.67;;;2.43;;
11121;SDS011;5615;49.304;10.576;2023-04-24T12:12:10;4.67;;;2.50;;
11121;SDS011;5615;49.304;10.576;2023-04-24T12:14:42;2.93;;;2.63;;
11121;SDS011;5615;49.304;10.576;2023-04-24T12:17:10;3.20;;;2.90;;
11121;SDS011;5615;49.304;10.576;2023-04-24T12:19:36;4.20;;;2.60;;
11121;SDS011;5615;49.304;10.576;2023-04-24T12:22:04;4.03;;;3.73;;
11121;SDS011;5615;49.304;10.576;2023-04-24T12:24:32;5.00;;;4.17;;
11121;SDS011;5615;49.304;10.576;2023-04-24T12:26:58;4.63;;;3.63;;
11121;SDS011;5615;49.304;10.576;2023-04-24T12:29:27;3.47;;;3.00;;
11121;SDS011;5615;49.304;10.576;2023-04-24T12:31:54;4.70;;;3.00;;
11121;SDS011;5615;49.304;10.576;2023-04-24T12:34:21;3.20;;;2.90;;
11121;SDS011;5615;49.304;10.576;2023-04-24T12:36:50;3.73;;;2.63;;
11121;SDS011;5615;49.304;10.576;2023-04-24T12:39:16;2.60;;;2.40;;
11121;SDS011;5615;49.304;10.576;2023-04-24T12:41:50;3.10;;;2.43;;
11121;SDS011;5615;49.304;10.576;2023-04-24T12:44:29;3.07;;;2.60;;
11121;SDS011;5615;49.304;10.576;2023-04-24T12:46:57;3.00;;;2.70;;
11121;SDS011;5615;49.304;10.576;2023-04-24T12:49:23;3.87;;;2.60;;
11121;SDS011;5615;49.304;10.576;2023-04-24T12:51:50;3.27;;;2.93;;
11121;SDS011;5615;49.304;10.576;2023-04-24T12:54:17;3.60;;;3.30;;
11121;SDS011;5615;49.304;10.576;2023-04-24T12:56:44;3.40;;;3.10;;
11121;SDS011;5615;49.304;10.576;2023-04-24T12:59:10;3.70;;;3.27;;
11121;SDS011;5615;49.304;10.576;2023-04-24T13:01:38;3.80;;;2.90;;
11121;SDS011;5615;49.304;10.576;2023-04-24T13:04:05;4.47;;;3.43;;
11121;SDS011;5615;49.304;10.576;2023-04-24T13:06:32;4.57;;;3.80;;
11121;SDS011;5615;49.304;10.576;2023-04-24T13:08:58;4.13;;;3.73;;
11121;SDS011;5615;49.304;10.576;2023-04-24T13:11:25;4.47;;;3.97;;
11121;SDS011;5615;49.304;10.576;2023-04-24T13:13:52;5.40;;;4.07;;
11121;SDS011;5615;49.304;10.576;2023-04-24T13:16:18;4.77;;;4.00;;
11121;SDS011;5615;49.304;10.576;2023-04-24T13:18:46;7.13;;;3.97;;
11121;SDS011;5615;49.304;10.576;2023-04-24T13:21:13;8.77;;;5.53;;
11121;SDS011;5615;49.304;10.576;2023-04-24T13:23:40;5.97;;;4.37;;
11121;SDS011;5615;49.304;10.576;2023-04-24T13:26:07;4.90;;;4.27;;
11121;SDS011;5615;49.304;10.576;2023-04-24T13:28:34;4.27;;;3.80;;
11121;SDS011;5615;49.304;10.576;2023-04-24T13:31:00;4.57;;;3.63;;
11121;SDS011;5615;49.304;10.576;2023-04-24T13:33:27;3.73;;;3.23;;
11121;SDS011;5615;49.304;10.576;2023-04-24T13:35:55;4.93;;;2.97;;
11121;SDS011;5615;49.304;10.576;2023-04-24T13:38:22;3.00;;;2.80;;
11121;SDS011;5615;49.304;10.576;2023-04-24T13:40:48;2.78;;;2.58;;
11121;SDS011;5615;49.304;10.576;2023-04-24T13:43:15;2.63;;;2.42;;
11121;SDS011;5615;49.304;10.576;2023-04-24T13:45:42;3.42;;;2.80;;
11121;SDS011;5615;49.304;10.576;2023-04-24T13:48:08;2.85;;;2.65;;
11121;SDS011;5615;49.304;10.576;2023-04-24T13:50:35;3.42;;;3.08;;
11121;SDS011;5615;49.304;10.576;2023-04-24T13:53:03;3.83;;;3.40;;
11121;SDS011;5615;49.304;10.576;2023-04-24T13:55:30;5.20;;;3.67;;
11121;SDS011;5615;49.304;10.576;2023-04-24T13:57:56;4.93;;;3.57;;
11121;SDS011;5615;49.304;10.576;2023-04-24T14:00:23;4.20;;;3.70;;
11121;SDS011;5615;49.304;10.576;2023-04-24T14:02:50;4.77;;;3.67;;
11121;SDS011;5615;49.304;10.576;2023-04-24T14:05:16;5.40;;;3.87;;
11121;SDS011;5615;49.304;10.576;2023-04-24T14:07:43;4.50;;;4.10;;
11121;SDS011;5615;49.304;10.576;2023-04-24T14:10:11;7.83;;;4.43;;
11121;SDS011;5615;49.304;10.576;2023-04-24T14:12:38;6.17;;;4.20;;
11121;SDS011;5615;49.304;10.576;2023-04-24T14:15:05;5.00;;;4.50;;
11121;SDS011;5615;49.304;10.576;2023-04-24T14:17:33;6.40;;;5.33;;
11121;SDS011;5615;49.304;10.576;2023-04-24T14:20:00;5.30;;;4.80;;
11121;SDS011;5615;49.304;10.576;2023-04-24T14:22:28;5.77;;;4.90;;
11121;SDS011;5615;49.304;10.576;2023-04-24T14:24:55;7.13;;;4.63;;
11121;SDS011;5615;49.304;10.576;2023-04-24T14:27:24;4.87;;;4.37;;
11121;SDS011;5615;49.304;10.576;2023-04-24T14:29:51;4.30;;;3.90;;
11121;SDS011;5615;49.304;10.576;2023-04-24T14:32:18;4.23;;;3.83;;
11121;SDS011;5615;49.304;10.576;2023-04-24T14:34:45;4.40;;;4.00;;
11121;SDS011;5615;49.304;10.576;2023-04-24T14:37:12;4.67;;;3.60;;
11121;SDS011;5615;49.304;10.576;2023-04-24T14:39:38;4.57;;;4.17;;
11121;SDS011;5615;49.304;10.576;2023-04-24T14:42:05;4.30;;;3.90;;
11121;SDS011;5615;49.304;10.576;2023-04-24T14:44:33;5.13;;;4.40;;
11121;SDS011;5615;49.304;10.576;2023-04-24T14:46:59;4.23;;;3.83;;
11121;SDS011;5615;49.304;10.576;2023-04-24T14:49:26;4.20;;;3.80;;
11121;SDS011;5615;49.304;10.576;2023-04-24T14:51:53;3.83;;;3.47;;